Weather at RAAF Williams, Point Cook Base

Public forecast

Using degrees Celsius for public forecast. Weather courtesy of forecast.io.

Closest aviation weather report (METAR) to RAAF Williams, Point Cook Base

Closest report is Melbourne Essendon Airport, 14.1 nm (26.2 km) NNE. Retrieved 2021/06/23 11:00 UTC (17 minutes ago):

YMEN 231100Z AUTO 36015KT 9999 // BKN100 12/10 Q1011

Closest aviation forecast (TAF) to RAAF Williams, Point Cook Base

Closest forecast is Avalon Airport, 14.9 nm (27.6 km) WSW. Retrieved 2021/06/23 06:33 UTC (5 hours ago):

TAF YMAV 230520Z 2306/2406 02015G27KT 9999 -RA SCT020 BKN050 FM231100 02014KT 9999 -RA SCT030 FM231500 02007KT 9999 NSW SCT020 FM232100 36010KT CAVOK